createdAt,value
2023-04-13T00:03:39.815Z,99042.66
2023-04-13T00:08:45.388Z,99026.00
2023-04-13T00:13:47.731Z,99028.53
2023-04-13T00:18:51.091Z,99023.22
2023-04-13T00:23:53.622Z,99022.63
2023-04-13T00:28:56.333Z,99022.75
2023-04-13T00:33:58.788Z,99007.31
2023-04-13T00:39:01.086Z,99014.31
2023-04-13T00:44:03.209Z,99004.66
2023-04-13T00:49:05.073Z,99016.09
2023-04-13T00:54:07.058Z,99007.41
2023-04-13T00:59:12.972Z,99004.91
2023-04-13T01:04:15.328Z,98987.50
2023-04-13T01:09:29.053Z,98988.34
2023-04-13T01:14:42.112Z,98984.59
2023-04-13T01:19:58.714Z,98987.50
2023-04-13T01:25:18.052Z,98984.72
2023-04-13T01:30:24.602Z,98992.81
2023-04-13T01:35:27.185Z,98988.34
2023-04-13T01:40:31.274Z,98988.44
2023-04-13T01:45:57.317Z,99000.91
2023-04-13T01:51:04.337Z,99008.50
2023-04-13T01:56:07.468Z,99015.75
2023-04-13T02:01:10.074Z,99012.00
2023-04-13T02:06:12.315Z,99026.25
2023-04-13T02:11:14.613Z,99027.44
2023-04-13T02:16:17.588Z,99040.63
2023-04-13T02:21:19.586Z,99036.38
2023-04-13T02:26:21.666Z,99049.53
2023-04-13T02:31:23.752Z,99053.16
2023-04-13T02:36:25.844Z,99064.63
2023-04-13T02:41:28.136Z,99060.25
2023-04-13T02:46:32.256Z,99057.75
2023-04-13T02:51:35.417Z,99065.56
2023-04-13T02:56:38.075Z,99063.78
2023-04-13T03:01:40.249Z,99069.09
2023-04-13T03:06:46.400Z,99067.38
2023-04-13T03:11:48.388Z,99093.47
2023-04-13T03:16:52.241Z,99091.41
2023-04-13T03:21:54.705Z,99086.97
2023-04-13T03:26:58.261Z,99118.19
2023-04-13T03:32:00.498Z,99111.44
2023-04-13T03:37:02.449Z,99132.41
2023-04-13T03:42:04.380Z,99124.25
2023-04-13T03:47:06.431Z,99138.34
2023-04-13T03:52:11.496Z,99151.53
2023-04-13T03:57:13.593Z,99155.13
2023-04-13T04:02:16.009Z,99165.66
2023-04-13T04:07:18.091Z,99173.84
2023-04-13T04:12:20.201Z,99188.06
2023-04-13T04:17:22.088Z,99188.19
2023-04-13T04:22:30.517Z,99198.69
2023-04-13T04:27:38.286Z,99210.28
2023-04-13T04:32:42.271Z,99221.13
2023-04-13T04:37:44.287Z,99227.41
2023-04-13T04:42:46.232Z,99231.88
2023-04-13T04:47:50.062Z,99242.59
2023-04-13T04:52:52.433Z,99246.75
2023-04-13T04:57:54.808Z,99261.69
2023-04-13T05:02:58.141Z,99269.16
2023-04-13T05:08:01.092Z,99282.94
2023-04-13T05:13:03.271Z,99282.09
2023-04-13T05:18:06.670Z,99287.75
2023-04-13T05:23:10.124Z,99299.84
2023-04-13T05:28:12.090Z,99314.06
2023-04-13T05:33:14.208Z,99316.94
2023-04-13T05:38:16.286Z,99329.25
2023-04-13T05:43:20.453Z,99334.56
2023-04-13T05:48:23.034Z,99340.00
2023-04-13T05:53:25.204Z,99343.59
2023-04-13T05:58:27.043Z,99349.66
2023-04-13T06:03:30.210Z,99361.25
2023-04-13T06:08:35.110Z,99382.50
2023-04-13T06:13:37.042Z,99377.28
2023-04-13T06:18:39.092Z,99384.41
2023-04-13T06:23:40.978Z,99393.97
2023-04-13T06:28:43.470Z,99406.50
2023-04-13T06:33:45.448Z,99413.72
2023-04-13T06:38:47.732Z,99417.00
2023-04-13T06:43:49.687Z,99427.00
2023-04-13T06:48:51.670Z,99432.94
2023-04-13T06:53:54.973Z,99434.97
2023-04-13T06:59:02.924Z,99445.16
2023-04-13T07:04:07.364Z,99430.91
2023-04-13T07:09:09.785Z,99439.63
2023-04-13T07:14:11.724Z,99450.66
2023-04-13T07:19:13.967Z,99469.56
2023-04-13T07:24:16.083Z,99462.66
2023-04-13T07:29:18.886Z,99461.09
2023-04-13T07:34:22.111Z,99470.22
2023-04-13T07:39:24.269Z,99478.91
2023-04-13T07:44:26.388Z,99479.34
2023-04-13T07:49:28.529Z,99493.56
2023-04-13T07:54:30.696Z,99495.03
2023-04-13T07:59:32.964Z,99507.97
2023-04-13T08:04:35.196Z,99521.09
2023-04-13T08:09:40.649Z,99532.44
2023-04-13T08:14:43.386Z,99537.34
2023-04-13T08:19:45.798Z,99548.28
2023-04-13T08:24:47.987Z,99558.91
2023-04-13T08:29:55.962Z,99563.16
2023-04-13T08:34:59.025Z,99573.13
2023-04-13T08:40:02.069Z,99573.03
2023-04-13T08:45:04.622Z,99581.75
2023-04-13T08:50:08.159Z,99588.31
2023-04-13T08:55:10.652Z,99586.75
2023-04-13T09:00:17.064Z,99587.81
2023-04-13T09:05:21.434Z,99597.69
2023-04-13T09:10:26.279Z,99602.16
2023-04-13T09:15:28.495Z,99608.84
2023-04-13T09:20:30.814Z,99612.56
2023-04-13T09:25:33.050Z,99620.84
2023-04-13T09:30:35.606Z,99630.81
2023-04-13T09:35:38.222Z,99632.53
2023-04-13T09:40:48.664Z,99648.66
2023-04-13T09:45:51.317Z,99656.75
2023-04-13T09:51:05.888Z,99664.59
2023-04-13T09:56:08.120Z,99676.09
2023-04-13T10:01:10.858Z,99680.19
2023-04-13T10:06:13.745Z,99674.13
2023-04-13T10:11:17.103Z,99686.06
2023-04-13T10:16:54.496Z,99686.06
2023-04-13T10:21:57.200Z,99692.66
2023-04-13T10:27:02.372Z,99700.72
2023-04-13T10:32:05.414Z,99719.44
2023-04-13T10:37:21.425Z,99704.53
2023-04-13T10:42:25.561Z,99707.06
2023-04-13T10:47:37.382Z,99720.47
2023-04-13T10:52:39.595Z,99712.41
2023-04-13T10:57:43.095Z,99723.97
2023-04-13T11:02:45.710Z,99727.47
2023-04-13T11:07:55.456Z,99724.63
2023-04-13T11:12:58.904Z,99737.63
2023-04-13T11:18:02.723Z,99721.13
2023-04-13T11:23:07.207Z,99742.34
2023-04-13T11:28:09.464Z,99744.91
2023-04-13T11:33:12.173Z,99753.44
2023-04-13T11:38:20.786Z,99758.88
2023-04-13T11:43:22.847Z,99762.16
2023-04-13T11:48:25.157Z,99769.56
2023-04-13T11:53:28.218Z,99770.63
2023-04-13T11:58:30.725Z,99766.72
2023-04-13T12:03:52.558Z,99772.69
2023-04-13T12:09:10.972Z,99770.34
2023-04-13T12:19:30.065Z,99782.09
2023-04-13T12:24:38.051Z,99793.78
2023-04-13T12:29:40.914Z,99796.97
2023-04-13T12:34:44.358Z,99794.91
2023-04-13T12:39:47.168Z,99801.16
2023-04-13T12:44:49.441Z,99805.25
2023-04-13T12:49:51.847Z,99800.69
2023-04-13T12:54:53.859Z,99804.66
2023-04-13T12:59:56.947Z,99809.78
2023-04-13T13:04:59.639Z,99797.44
2023-04-13T13:10:02.415Z,99808.28
2023-04-13T13:15:06.604Z,99815.41
2023-04-13T13:20:10.747Z,99809.78
2023-04-13T13:25:12.900Z,99814.44
2023-04-13T13:30:16.156Z,99813.19
2023-04-13T13:35:18.644Z,99820.31
2023-04-13T13:40:20.814Z,99814.13
2023-04-13T13:45:23.273Z,99822.22
2023-04-13T13:50:25.436Z,99817.84
2023-04-13T13:55:27.623Z,99826.56
2023-04-13T14:00:30.535Z,99824.75
2023-04-13T14:05:32.958Z,99828.28
2023-04-13T14:10:36.445Z,99825.63
2023-04-13T14:15:38.496Z,99825.63
2023-04-13T14:20:40.749Z,99839.00
2023-04-13T14:25:43.236Z,99838.03
2023-04-13T14:30:45.676Z,99853.88
2023-04-13T14:35:47.850Z,99847.72
2023-04-13T14:40:50.445Z,99855.59
2023-04-13T14:45:55.789Z,99852.50
2023-04-13T14:50:58.155Z,99850.06
2023-04-13T14:56:00.337Z,99848.59
2023-04-13T15:01:02.670Z,99860.69
2023-04-13T15:06:06.183Z,99861.72
2023-04-13T15:11:09.064Z,99864.66
2023-04-13T15:16:12.285Z,99864.34
2023-04-13T15:21:14.542Z,99867.03
2023-04-13T15:26:18.512Z,99871.25
2023-04-13T15:31:22.474Z,99870.50
2023-04-13T15:36:24.841Z,99864.34
2023-04-13T15:41:28.560Z,99870.56
2023-04-13T15:46:32.510Z,99873.22
2023-04-13T15:51:34.825Z,99887.00
2023-04-13T15:56:37.089Z,99879.91
2023-04-13T16:01:47.178Z,99881.81
2023-04-13T16:07:05.077Z,99885.38
2023-04-13T16:12:12.744Z,99889.78
2023-04-13T16:17:19.004Z,99896.00
2023-04-13T16:22:20.971Z,99899.44
2023-04-13T16:27:23.458Z,99904.94
2023-04-13T16:32:25.860Z,99913.56
2023-04-13T16:37:28.113Z,99911.78
2023-04-13T16:42:29.990Z,99920.88
2023-04-13T16:47:33.243Z,99924.47
2023-04-13T16:52:36.026Z,99927.13
2023-04-13T16:57:38.087Z,99922.88
2023-04-13T17:02:41.057Z,99924.47
2023-04-13T17:07:44.433Z,99930.84
2023-04-13T17:12:48.559Z,99944.13
2023-04-13T17:17:50.794Z,99958.25
2023-04-13T17:22:53.612Z,99965.28
2023-04-13T17:27:55.784Z,99970.00
2023-04-13T17:32:58.079Z,99974.38
2023-04-13T17:38:00.667Z,99986.06
2023-04-13T17:43:02.751Z,99984.16
2023-04-13T17:48:05.259Z,100003.59
2023-04-13T17:53:07.385Z,100005.50
2023-04-13T17:58:11.523Z,100017.94
2023-04-13T18:03:15.231Z,100019.97
2023-04-13T18:08:17.676Z,100031.47
2023-04-13T18:13:19.852Z,100038.41
2023-04-13T18:18:25.625Z,100053.56
2023-04-13T18:23:27.597Z,100067.72
2023-04-13T18:28:30.258Z,100077.38
2023-04-13T18:33:32.237Z,100072.06
2023-04-13T18:38:34.463Z,100079.94
2023-04-13T18:43:36.592Z,100094.19
2023-04-13T18:48:38.641Z,100102.28
2023-04-13T18:53:40.775Z,100104.81
2023-04-13T18:58:42.689Z,100114.16
2023-04-13T19:03:46.033Z,100114.53
2023-04-13T19:08:48.303Z,100120.63
2023-04-13T19:13:50.432Z,100128.84
2023-04-13T19:18:52.410Z,100128.97
2023-04-13T19:23:54.690Z,100141.56
2023-04-13T19:28:56.693Z,100144.72
2023-04-13T19:33:59.141Z,100146.38
2023-04-13T19:39:05.936Z,100148.31
2023-04-13T19:44:09.357Z,100159.84
2023-04-13T19:49:12.429Z,100152.75
2023-04-13T19:54:14.573Z,100159.75
2023-04-13T19:59:16.846Z,100175.47
2023-04-13T20:04:18.975Z,100173.00
2023-04-13T20:09:21.633Z,100175.75
2023-04-13T20:14:23.969Z,100178.41
2023-04-13T20:19:26.163Z,100184.25
2023-04-13T20:24:28.211Z,100187.16
2023-04-13T20:29:30.360Z,100195.59
2023-04-13T20:34:34.706Z,100199.69
2023-04-13T20:39:39.223Z,100210.44
2023-04-13T20:44:45.159Z,100208.97
2023-04-13T20:49:52.261Z,100216.84
2023-04-13T20:54:57.739Z,100219.56
2023-04-13T21:00:00.191Z,100219.72
2023-04-13T21:05:03.601Z,100227.63
2023-04-13T21:10:09.636Z,100225.50
2023-04-13T21:15:12.549Z,100222.31
2023-04-13T21:20:14.787Z,100229.00
2023-04-13T21:25:16.792Z,100228.50
2023-04-13T21:30:18.861Z,100238.94
2023-04-13T21:35:20.971Z,100235.59
2023-04-13T21:40:24.531Z,100235.59
2023-04-13T21:45:26.541Z,100234.56
2023-04-13T21:50:28.557Z,100237.47
2023-04-13T21:55:30.524Z,100233.06
2023-04-13T22:00:32.970Z,100235.88
2023-04-13T22:05:35.045Z,100237.75
2023-04-13T22:10:37.156Z,100236.72
2023-04-13T22:15:39.246Z,100237.47
2023-04-13T22:20:41.802Z,100233.22
2023-04-13T22:25:52.318Z,100234.16
2023-04-13T22:30:54.374Z,100230.63
2023-04-13T22:35:56.358Z,100232.38
2023-04-13T22:40:58.697Z,100230.63
2023-04-13T22:46:01.425Z,100236.91
2023-04-13T22:51:06.252Z,100239.56
2023-04-13T22:56:08.494Z,100242.13
2023-04-13T23:01:11.027Z,100240.25
2023-04-13T23:06:13.083Z,100244.69
2023-04-13T23:11:15.547Z,100246.50
2023-04-13T23:16:17.652Z,100243.00
2023-04-13T23:21:19.901Z,100243.00
2023-04-13T23:26:22.195Z,100250.19
2023-04-13T23:31:24.308Z,100250.97
2023-04-13T23:36:26.901Z,100252.84
2023-04-13T23:41:28.857Z,100253.78
2023-04-13T23:46:31.032Z,100264.50
2023-04-13T23:51:33.026Z,100259.84
2023-04-13T23:56:35.312Z,100258.16
